sensor_id;sensor_type;location;lat;lon;timestamp;P1;durP1;ratioP1;P2;durP2;ratioP2
18780;SDS011;9519;51.890;8.970;2023-08-20T00:02:21;47.03;;;42.03;;
18780;SDS011;9519;51.890;8.970;2023-08-20T00:07:27;47.85;;;42.92;;
18780;SDS011;9519;51.890;8.970;2023-08-20T00:12:31;46.70;;;41.92;;
18780;SDS011;9519;51.890;8.970;2023-08-20T00:17:34;47.50;;;41.35;;
18780;SDS011;9519;51.890;8.970;2023-08-20T00:22:38;55.42;;;46.90;;
18780;SDS011;9519;51.890;8.970;2023-08-20T00:27:43;56.95;;;47.13;;
18780;SDS011;9519;51.890;8.970;2023-08-20T00:32:47;48.50;;;41.75;;
18780;SDS011;9519;51.890;8.970;2023-08-20T00:37:49;55.72;;;46.60;;
18780;SDS011;9519;51.890;8.970;2023-08-20T00:42:53;62.00;;;48.63;;
18780;SDS011;9519;51.890;8.970;2023-08-20T00:47:55;55.17;;;46.05;;
18780;SDS011;9519;51.890;8.970;2023-08-20T00:52:58;56.38;;;48.15;;
18780;SDS011;9519;51.890;8.970;2023-08-20T00:58:02;68.47;;;52.35;;
18780;SDS011;9519;51.890;8.970;2023-08-20T01:03:04;54.28;;;47.55;;
18780;SDS011;9519;51.890;8.970;2023-08-20T01:08:13;56.33;;;45.55;;
18780;SDS011;9519;51.890;8.970;2023-08-20T01:13:30;39.72;;;33.03;;
18780;SDS011;9519;51.890;8.970;2023-08-20T01:18:32;24.17;;;19.02;;
18780;SDS011;9519;51.890;8.970;2023-08-20T01:29:19;21.70;;;14.73;;
18780;SDS011;9519;51.890;8.970;2023-08-20T01:34:22;20.90;;;14.48;;
18780;SDS011;9519;51.890;8.970;2023-08-20T01:39:24;15.02;;;12.93;;
18780;SDS011;9519;51.890;8.970;2023-08-20T01:44:27;17.70;;;12.50;;
18780;SDS011;9519;51.890;8.970;2023-08-20T01:49:29;19.23;;;13.23;;
18780;SDS011;9519;51.890;8.970;2023-08-20T01:54:31;19.30;;;13.77;;
18780;SDS011;9519;51.890;8.970;2023-08-20T01:59:35;24.75;;;15.40;;
18780;SDS011;9519;51.890;8.970;2023-08-20T02:04:37;18.77;;;13.73;;
18780;SDS011;9519;51.890;8.970;2023-08-20T02:09:39;20.58;;;12.85;;
18780;SDS011;9519;51.890;8.970;2023-08-20T02:14:42;18.48;;;13.23;;
18780;SDS011;9519;51.890;8.970;2023-08-20T02:19:45;20.13;;;14.23;;
18780;SDS011;9519;51.890;8.970;2023-08-20T02:24:47;19.52;;;14.10;;
18780;SDS011;9519;51.890;8.970;2023-08-20T02:29:50;17.77;;;13.35;;
18780;SDS011;9519;51.890;8.970;2023-08-20T02:34:52;14.93;;;11.18;;
18780;SDS011;9519;51.890;8.970;2023-08-20T02:39:55;14.60;;;11.18;;
18780;SDS011;9519;51.890;8.970;2023-08-20T02:44:59;20.77;;;13.65;;
18780;SDS011;9519;51.890;8.970;2023-08-20T02:50:01;20.83;;;12.70;;
18780;SDS011;9519;51.890;8.970;2023-08-20T02:55:04;17.73;;;12.80;;
18780;SDS011;9519;51.890;8.970;2023-08-20T03:00:08;17.92;;;14.05;;
18780;SDS011;9519;51.890;8.970;2023-08-20T03:05:13;21.35;;;15.68;;
18780;SDS011;9519;51.890;8.970;2023-08-20T03:10:16;20.15;;;14.10;;
18780;SDS011;9519;51.890;8.970;2023-08-20T03:15:19;19.83;;;14.15;;
18780;SDS011;9519;51.890;8.970;2023-08-20T03:20:21;20.13;;;13.93;;
18780;SDS011;9519;51.890;8.970;2023-08-20T03:25:23;21.63;;;14.98;;
18780;SDS011;9519;51.890;8.970;2023-08-20T03:30:27;18.05;;;14.05;;
18780;SDS011;9519;51.890;8.970;2023-08-20T03:35:29;18.85;;;13.10;;
18780;SDS011;9519;51.890;8.970;2023-08-20T03:40:31;21.17;;;13.70;;
18780;SDS011;9519;51.890;8.970;2023-08-20T03:45:35;20.35;;;13.95;;
18780;SDS011;9519;51.890;8.970;2023-08-20T03:50:37;15.65;;;12.05;;
18780;SDS011;9519;51.890;8.970;2023-08-20T03:55:39;19.55;;;14.18;;
18780;SDS011;9519;51.890;8.970;2023-08-20T04:00:42;19.95;;;13.32;;
18780;SDS011;9519;51.890;8.970;2023-08-20T04:05:45;16.23;;;11.70;;
18780;SDS011;9519;51.890;8.970;2023-08-20T04:10:47;15.95;;;11.23;;
18780;SDS011;9519;51.890;8.970;2023-08-20T04:15:50;21.52;;;13.43;;
18780;SDS011;9519;51.890;8.970;2023-08-20T04:20:53;18.42;;;13.30;;
18780;SDS011;9519;51.890;8.970;2023-08-20T04:25:55;18.30;;;13.93;;
18780;SDS011;9519;51.890;8.970;2023-08-20T04:30:59;20.27;;;12.00;;
18780;SDS011;9519;51.890;8.970;2023-08-20T04:36:01;15.57;;;12.60;;
18780;SDS011;9519;51.890;8.970;2023-08-20T04:41:03;19.25;;;13.30;;
18780;SDS011;9519;51.890;8.970;2023-08-20T04:46:06;18.65;;;13.63;;
18780;SDS011;9519;51.890;8.970;2023-08-20T04:51:09;17.95;;;11.30;;
18780;SDS011;9519;51.890;8.970;2023-08-20T04:56:11;15.23;;;10.05;;
18780;SDS011;9519;51.890;8.970;2023-08-20T05:01:14;14.27;;;8.93;;
18780;SDS011;9519;51.890;8.970;2023-08-20T05:06:16;15.65;;;9.70;;
18780;SDS011;9519;51.890;8.970;2023-08-20T05:11:18;11.43;;;7.57;;
18780;SDS011;9519;51.890;8.970;2023-08-20T05:16:23;15.45;;;8.60;;
18780;SDS011;9519;51.890;8.970;2023-08-20T05:21:25;14.32;;;8.88;;
18780;SDS011;9519;51.890;8.970;2023-08-20T05:26:29;15.82;;;9.82;;
18780;SDS011;9519;51.890;8.970;2023-08-20T05:31:33;15.05;;;8.88;;
18780;SDS011;9519;51.890;8.970;2023-08-20T05:36:35;16.73;;;10.30;;
18780;SDS011;9519;51.890;8.970;2023-08-20T05:41:37;16.05;;;10.55;;
18780;SDS011;9519;51.890;8.970;2023-08-20T05:46:40;17.70;;;10.35;;
18780;SDS011;9519;51.890;8.970;2023-08-20T05:51:42;16.08;;;9.85;;
18780;SDS011;9519;51.890;8.970;2023-08-20T05:56:45;16.30;;;10.40;;
18780;SDS011;9519;51.890;8.970;2023-08-20T06:01:48;16.98;;;10.80;;
18780;SDS011;9519;51.890;8.970;2023-08-20T06:06:50;16.58;;;10.55;;
18780;SDS011;9519;51.890;8.970;2023-08-20T06:11:52;13.13;;;10.73;;
18780;SDS011;9519;51.890;8.970;2023-08-20T06:16:55;13.25;;;9.85;;
18780;SDS011;9519;51.890;8.970;2023-08-20T06:21:57;14.18;;;9.48;;
18780;SDS011;9519;51.890;8.970;2023-08-20T06:27:01;12.25;;;9.10;;
18780;SDS011;9519;51.890;8.970;2023-08-20T06:32:05;15.30;;;9.00;;
18780;SDS011;9519;51.890;8.970;2023-08-20T06:37:07;11.50;;;9.27;;
18780;SDS011;9519;51.890;8.970;2023-08-20T06:42:09;14.52;;;8.35;;
18780;SDS011;9519;51.890;8.970;2023-08-20T06:47:13;16.17;;;8.55;;
18780;SDS011;9519;51.890;8.970;2023-08-20T06:52:15;11.95;;;8.88;;
18780;SDS011;9519;51.890;8.970;2023-08-20T06:57:17;14.98;;;9.38;;
18780;SDS011;9519;51.890;8.970;2023-08-20T07:02:20;14.20;;;10.40;;
18780;SDS011;9519;51.890;8.970;2023-08-20T07:07:22;13.40;;;9.52;;
18780;SDS011;9519;51.890;8.970;2023-08-20T07:12:24;15.60;;;9.85;;
18780;SDS011;9519;51.890;8.970;2023-08-20T07:17:28;11.27;;;8.93;;
18780;SDS011;9519;51.890;8.970;2023-08-20T07:22:30;17.42;;;12.60;;
18780;SDS011;9519;51.890;8.970;2023-08-20T07:27:32;43.78;;;25.00;;
18780;SDS011;9519;51.890;8.970;2023-08-20T07:32:35;49.33;;;27.20;;
18780;SDS011;9519;51.890;8.970;2023-08-20T07:37:37;79.60;;;41.47;;
18780;SDS011;9519;51.890;8.970;2023-08-20T07:42:39;14.27;;;8.40;;
18780;SDS011;9519;51.890;8.970;2023-08-20T07:47:43;54.08;;;28.13;;
18780;SDS011;9519;51.890;8.970;2023-08-20T07:52:45;34.80;;;19.27;;
18780;SDS011;9519;51.890;8.970;2023-08-20T07:57:47;12.73;;;8.35;;
18780;SDS011;9519;51.890;8.970;2023-08-20T08:02:51;12.95;;;8.27;;
18780;SDS011;9519;51.890;8.970;2023-08-20T08:07:53;13.45;;;8.80;;
18780;SDS011;9519;51.890;8.970;2023-08-20T08:12:55;12.57;;;8.80;;
18780;SDS011;9519;51.890;8.970;2023-08-20T08:17:58;12.70;;;8.57;;
18780;SDS011;9519;51.890;8.970;2023-08-20T08:23:01;12.20;;;8.02;;
18780;SDS011;9519;51.890;8.970;2023-08-20T08:28:03;24.42;;;14.13;;
18780;SDS011;9519;51.890;8.970;2023-08-20T08:33:07;18.42;;;12.23;;
18780;SDS011;9519;51.890;8.970;2023-08-20T08:38:09;16.30;;;12.30;;
18780;SDS011;9519;51.890;8.970;2023-08-20T08:43:11;14.43;;;9.85;;
18780;SDS011;9519;51.890;8.970;2023-08-20T08:48:18;17.95;;;11.25;;
18780;SDS011;9519;51.890;8.970;2023-08-20T08:53:22;15.60;;;9.68;;
18780;SDS011;9519;51.890;8.970;2023-08-20T08:58:26;17.70;;;10.68;;
18780;SDS011;9519;51.890;8.970;2023-08-20T09:03:32;14.65;;;12.25;;
18780;SDS011;9519;51.890;8.970;2023-08-20T09:08:34;14.73;;;11.07;;
18780;SDS011;9519;51.890;8.970;2023-08-20T09:13:37;14.88;;;11.63;;
18780;SDS011;9519;51.890;8.970;2023-08-20T09:18:43;17.20;;;11.23;;
18780;SDS011;9519;51.890;8.970;2023-08-20T09:23:46;13.95;;;10.63;;
18780;SDS011;9519;51.890;8.970;2023-08-20T09:28:48;17.38;;;12.63;;
18780;SDS011;9519;51.890;8.970;2023-08-20T09:33:52;14.55;;;8.40;;
18780;SDS011;9519;51.890;8.970;2023-08-20T09:38:55;12.48;;;10.30;;
18780;SDS011;9519;51.890;8.970;2023-08-20T09:44:18;12.10;;;9.63;;
18780;SDS011;9519;51.890;8.970;2023-08-20T09:49:45;11.40;;;9.48;;
18780;SDS011;9519;51.890;8.970;2023-08-20T09:54:55;10.00;;;7.68;;
18780;SDS011;9519;51.890;8.970;2023-08-20T10:00:05;7.95;;;6.30;;
18780;SDS011;9519;51.890;8.970;2023-08-20T10:05:12;8.45;;;6.55;;
18780;SDS011;9519;51.890;8.970;2023-08-20T10:10:15;9.07;;;7.38;;
18780;SDS011;9519;51.890;8.970;2023-08-20T10:15:17;9.95;;;6.63;;
18780;SDS011;9519;51.890;8.970;2023-08-20T10:20:21;8.82;;;7.25;;
18780;SDS011;9519;51.890;8.970;2023-08-20T10:25:23;9.93;;;7.03;;
18780;SDS011;9519;51.890;8.970;2023-08-20T10:30:26;9.23;;;6.47;;
18780;SDS011;9519;51.890;8.970;2023-08-20T10:40:53;10.80;;;7.78;;
18780;SDS011;9519;51.890;8.970;2023-08-20T10:46:13;8.82;;;7.07;;
18780;SDS011;9519;51.890;8.970;2023-08-20T10:51:19;9.25;;;7.70;;
18780;SDS011;9519;51.890;8.970;2023-08-20T10:56:37;9.85;;;6.80;;
18780;SDS011;9519;51.890;8.970;2023-08-20T11:01:42;10.27;;;7.68;;
18780;SDS011;9519;51.890;8.970;2023-08-20T11:06:49;9.27;;;7.45;;
18780;SDS011;9519;51.890;8.970;2023-08-20T11:11:54;10.55;;;7.70;;
18780;SDS011;9519;51.890;8.970;2023-08-20T11:16:57;11.32;;;7.03;;
18780;SDS011;9519;51.890;8.970;2023-08-20T11:22:00;9.68;;;7.68;;
18780;SDS011;9519;51.890;8.970;2023-08-20T11:27:03;8.95;;;7.82;;
18780;SDS011;9519;51.890;8.970;2023-08-20T11:32:05;9.50;;;8.30;;
18780;SDS011;9519;51.890;8.970;2023-08-20T11:37:08;10.30;;;8.57;;
18780;SDS011;9519;51.890;8.970;2023-08-20T11:42:11;9.40;;;8.15;;
18780;SDS011;9519;51.890;8.970;2023-08-20T11:47:15;10.40;;;7.85;;
18780;SDS011;9519;51.890;8.970;2023-08-20T11:52:19;9.38;;;7.70;;
18780;SDS011;9519;51.890;8.970;2023-08-20T11:57:21;9.18;;;8.13;;
18780;SDS011;9519;51.890;8.970;2023-08-20T12:02:24;9.38;;;7.53;;
18780;SDS011;9519;51.890;8.970;2023-08-20T12:07:29;8.88;;;7.45;;
18780;SDS011;9519;51.890;8.970;2023-08-20T12:12:31;8.70;;;7.80;;
18780;SDS011;9519;51.890;8.970;2023-08-20T12:17:35;9.68;;;8.05;;
18780;SDS011;9519;51.890;8.970;2023-08-20T12:22:39;10.80;;;7.65;;
18780;SDS011;9519;51.890;8.970;2023-08-20T12:27:41;9.60;;;8.05;;
18780;SDS011;9519;51.890;8.970;2023-08-20T12:32:43;8.80;;;7.90;;
18780;SDS011;9519;51.890;8.970;2023-08-20T12:37:47;8.65;;;7.50;;
18780;SDS011;9519;51.890;8.970;2023-08-20T12:42:49;10.65;;;7.88;;
18780;SDS011;9519;51.890;8.970;2023-08-20T12:47:51;9.73;;;7.57;;
18780;SDS011;9519;51.890;8.970;2023-08-20T12:52:55;8.88;;;7.18;;
18780;SDS011;9519;51.890;8.970;2023-08-20T12:57:57;9.88;;;7.45;;
18780;SDS011;9519;51.890;8.970;2023-08-20T13:03:00;8.68;;;7.45;;
18780;SDS011;9519;51.890;8.970;2023-08-20T13:08:05;9.50;;;7.63;;
18780;SDS011;9519;51.890;8.970;2023-08-20T13:13:09;10.80;;;7.68;;
18780;SDS011;9519;51.890;8.970;2023-08-20T13:18:13;8.52;;;7.63;;
18780;SDS011;9519;51.890;8.970;2023-08-20T13:23:17;8.30;;;6.95;;
18780;SDS011;9519;51.890;8.970;2023-08-20T13:28:20;11.23;;;7.40;;
18780;SDS011;9519;51.890;8.970;2023-08-20T13:33:22;8.70;;;7.80;;
18780;SDS011;9519;51.890;8.970;2023-08-20T13:38:25;8.75;;;7.78;;
18780;SDS011;9519;51.890;8.970;2023-08-20T13:43:27;8.50;;;6.35;;
18780;SDS011;9519;51.890;8.970;2023-08-20T13:48:29;7.20;;;5.43;;
18780;SDS011;9519;51.890;8.970;2023-08-20T13:53:33;7.40;;;5.45;;
18780;SDS011;9519;51.890;8.970;2023-08-20T13:58:35;6.53;;;5.07;;
18780;SDS011;9519;51.890;8.970;2023-08-20T14:03:38;6.75;;;5.30;;
18780;SDS011;9519;51.890;8.970;2023-08-20T14:08:42;6.57;;;4.97;;
18780;SDS011;9519;51.890;8.970;2023-08-20T14:13:45;8.00;;;5.00;;
18780;SDS011;9519;51.890;8.970;2023-08-20T14:18:49;7.00;;;5.25;;
18780;SDS011;9519;51.890;8.970;2023-08-20T14:23:52;6.95;;;5.45;;
18780;SDS011;9519;51.890;8.970;2023-08-20T14:28:54;8.55;;;5.15;;
18780;SDS011;9519;51.890;8.970;2023-08-20T14:33:56;9.55;;;6.10;;
18780;SDS011;9519;51.890;8.970;2023-08-20T14:39:00;7.13;;;4.88;;
18780;SDS011;9519;51.890;8.970;2023-08-20T14:44:03;8.57;;;4.75;;
18780;SDS011;9519;51.890;8.970;2023-08-20T14:49:06;5.43;;;4.65;;
18780;SDS011;9519;51.890;8.970;2023-08-20T14:54:09;7.20;;;4.93;;
18780;SDS011;9519;51.890;8.970;2023-08-20T14:59:11;7.63;;;5.38;;
18780;SDS011;9519;51.890;8.970;2023-08-20T15:04:13;6.78;;;5.00;;
18780;SDS011;9519;51.890;8.970;2023-08-20T15:09:17;6.07;;;4.75;;
18780;SDS011;9519;51.890;8.970;2023-08-20T15:14:21;6.00;;;4.60;;
18780;SDS011;9519;51.890;8.970;2023-08-20T15:19:23;7.30;;;4.18;;
18780;SDS011;9519;51.890;8.970;2023-08-20T15:24:27;6.18;;;4.40;;
18780;SDS011;9519;51.890;8.970;2023-08-20T15:29:29;7.30;;;4.35;;
18780;SDS011;9519;51.890;8.970;2023-08-20T15:34:31;6.55;;;4.43;;
18780;SDS011;9519;51.890;8.970;2023-08-20T15:39:35;6.68;;;4.43;;
18780;SDS011;9519;51.890;8.970;2023-08-20T15:44:39;7.97;;;4.40;;
18780;SDS011;9519;51.890;8.970;2023-08-20T15:49:42;6.90;;;4.53;;
18780;SDS011;9519;51.890;8.970;2023-08-20T15:54:45;7.07;;;4.28;;
18780;SDS011;9519;51.890;8.970;2023-08-20T15:59:47;7.63;;;4.68;;
18780;SDS011;9519;51.890;8.970;2023-08-20T16:04:49;7.43;;;4.60;;
18780;SDS011;9519;51.890;8.970;2023-08-20T16:09:53;8.65;;;5.53;;
18780;SDS011;9519;51.890;8.970;2023-08-20T16:14:55;8.75;;;5.65;;
18780;SDS011;9519;51.890;8.970;2023-08-20T16:19:57;11.38;;;6.32;;
18780;SDS011;9519;51.890;8.970;2023-08-20T16:25:01;8.60;;;5.10;;
18780;SDS011;9519;51.890;8.970;2023-08-20T16:30:05;8.90;;;5.60;;
18780;SDS011;9519;51.890;8.970;2023-08-20T16:35:10;8.57;;;5.82;;
18780;SDS011;9519;51.890;8.970;2023-08-20T16:40:20;9.48;;;5.25;;
18780;SDS011;9519;51.890;8.970;2023-08-20T16:45:22;7.07;;;5.07;;
18780;SDS011;9519;51.890;8.970;2023-08-20T16:50:26;7.60;;;5.57;;
18780;SDS011;9519;51.890;8.970;2023-08-20T16:55:30;12.63;;;7.47;;
18780;SDS011;9519;51.890;8.970;2023-08-20T17:00:32;6.53;;;5.35;;
18780;SDS011;9519;51.890;8.970;2023-08-20T17:05:36;8.93;;;5.45;;
18780;SDS011;9519;51.890;8.970;2023-08-20T17:10:39;6.97;;;5.50;;
18780;SDS011;9519;51.890;8.970;2023-08-20T17:15:41;7.00;;;5.32;;
18780;SDS011;9519;51.890;8.970;2023-08-20T17:20:44;11.93;;;8.07;;
18780;SDS011;9519;51.890;8.970;2023-08-20T17:25:47;9.85;;;6.00;;
18780;SDS011;9519;51.890;8.970;2023-08-20T17:30:49;13.23;;;7.13;;
18780;SDS011;9519;51.890;8.970;2023-08-20T17:35:52;8.95;;;7.80;;
18780;SDS011;9519;51.890;8.970;2023-08-20T17:40:55;8.30;;;6.03;;
18780;SDS011;9519;51.890;8.970;2023-08-20T17:45:57;7.88;;;5.65;;
18780;SDS011;9519;51.890;8.970;2023-08-20T17:50:59;8.15;;;6.07;;
18780;SDS011;9519;51.890;8.970;2023-08-20T17:56:05;8.52;;;7.30;;
18780;SDS011;9519;51.890;8.970;2023-08-20T18:01:07;8.07;;;6.32;;
18780;SDS011;9519;51.890;8.970;2023-08-20T18:06:09;12.60;;;6.50;;
18780;SDS011;9519;51.890;8.970;2023-08-20T18:11:12;9.88;;;7.22;;
18780;SDS011;9519;51.890;8.970;2023-08-20T18:16:15;12.18;;;6.93;;
18780;SDS011;9519;51.890;8.970;2023-08-20T18:21:17;9.57;;;7.55;;
18780;SDS011;9519;51.890;8.970;2023-08-20T18:26:21;8.90;;;6.60;;
18780;SDS011;9519;51.890;8.970;2023-08-20T18:31:23;10.45;;;5.85;;
18780;SDS011;9519;51.890;8.970;2023-08-20T18:36:25;9.25;;;6.18;;
18780;SDS011;9519;51.890;8.970;2023-08-20T18:41:31;8.15;;;6.05;;
18780;SDS011;9519;51.890;8.970;2023-08-20T18:46:33;9.30;;;6.45;;
18780;SDS011;9519;51.890;8.970;2023-08-20T18:51:35;9.15;;;6.03;;
18780;SDS011;9519;51.890;8.970;2023-08-20T18:56:39;12.23;;;7.05;;
18780;SDS011;9519;51.890;8.970;2023-08-20T19:01:41;9.77;;;6.15;;
18780;SDS011;9519;51.890;8.970;2023-08-20T19:06:43;10.15;;;6.78;;
18780;SDS011;9519;51.890;8.970;2023-08-20T19:11:47;13.27;;;7.85;;
18780;SDS011;9519;51.890;8.970;2023-08-20T19:16:49;7.75;;;6.32;;
18780;SDS011;9519;51.890;8.970;2023-08-20T19:21:51;10.88;;;7.15;;
18780;SDS011;9519;51.890;8.970;2023-08-20T19:26:54;11.63;;;7.20;;
18780;SDS011;9519;51.890;8.970;2023-08-20T19:31:57;11.00;;;6.90;;
18780;SDS011;9519;51.890;8.970;2023-08-20T19:37:01;12.57;;;7.18;;
18780;SDS011;9519;51.890;8.970;2023-08-20T19:42:05;10.10;;;7.47;;
18780;SDS011;9519;51.890;8.970;2023-08-20T19:47:08;8.95;;;6.90;;
18780;SDS011;9519;51.890;8.970;2023-08-20T19:52:10;10.80;;;7.70;;
18780;SDS011;9519;51.890;8.970;2023-08-20T19:57:16;12.80;;;8.32;;
18780;SDS011;9519;51.890;8.970;2023-08-20T20:02:18;16.90;;;11.18;;
18780;SDS011;9519;51.890;8.970;2023-08-20T20:07:20;8.73;;;7.47;;
18780;SDS011;9519;51.890;8.970;2023-08-20T20:12:24;11.95;;;7.95;;
18780;SDS011;9519;51.890;8.970;2023-08-20T20:17:26;13.15;;;7.40;;
18780;SDS011;9519;51.890;8.970;2023-08-20T20:22:28;11.60;;;8.30;;
18780;SDS011;9519;51.890;8.970;2023-08-20T20:27:32;11.30;;;7.90;;
18780;SDS011;9519;51.890;8.970;2023-08-20T20:32:35;14.85;;;7.63;;
18780;SDS011;9519;51.890;8.970;2023-08-20T20:37:37;11.02;;;7.00;;
18780;SDS011;9519;51.890;8.970;2023-08-20T20:42:42;12.23;;;7.70;;
18780;SDS011;9519;51.890;8.970;2023-08-20T20:47:44;13.13;;;6.63;;
18780;SDS011;9519;51.890;8.970;2023-08-20T20:52:46;11.50;;;6.15;;
18780;SDS011;9519;51.890;8.970;2023-08-20T20:57:50;9.90;;;4.85;;
18780;SDS011;9519;51.890;8.970;2023-08-20T21:02:52;13.43;;;5.30;;
18780;SDS011;9519;51.890;8.970;2023-08-20T21:07:54;9.77;;;5.20;;
18780;SDS011;9519;51.890;8.970;2023-08-20T21:12:58;9.60;;;5.00;;
18780;SDS011;9519;51.890;8.970;2023-08-20T21:18:00;15.30;;;5.40;;
18780;SDS011;9519;51.890;8.970;2023-08-20T21:23:04;8.98;;;4.28;;
18780;SDS011;9519;51.890;8.970;2023-08-20T21:28:07;7.55;;;4.65;;
18780;SDS011;9519;51.890;8.970;2023-08-20T21:33:09;9.50;;;5.00;;
18780;SDS011;9519;51.890;8.970;2023-08-20T21:38:11;10.27;;;4.35;;
18780;SDS011;9519;51.890;8.970;2023-08-20T21:43:15;9.05;;;4.90;;
18780;SDS011;9519;51.890;8.970;2023-08-20T21:48:17;10.77;;;5.15;;
18780;SDS011;9519;51.890;8.970;2023-08-20T21:53:19;9.02;;;4.18;;
18780;SDS011;9519;51.890;8.970;2023-08-20T21:58:22;9.95;;;5.60;;
18780;SDS011;9519;51.890;8.970;2023-08-20T22:03:25;9.35;;;4.07;;
18780;SDS011;9519;51.890;8.970;2023-08-20T22:08:27;10.23;;;3.13;;
18780;SDS011;9519;51.890;8.970;2023-08-20T22:13:31;8.02;;;2.90;;
18780;SDS011;9519;51.890;8.970;2023-08-20T22:18:33;7.65;;;3.05;;
18780;SDS011;9519;51.890;8.970;2023-08-20T22:23:35;19.33;;;8.18;;
18780;SDS011;9519;51.890;8.970;2023-08-20T22:28:41;12.98;;;3.13;;
18780;SDS011;9519;51.890;8.970;2023-08-20T22:33:43;7.00;;;2.70;;
18780;SDS011;9519;51.890;8.970;2023-08-20T22:38:45;5.30;;;2.45;;
18780;SDS011;9519;51.890;8.970;2023-08-20T22:43:48;6.07;;;2.50;;
18780;SDS011;9519;51.890;8.970;2023-08-20T22:48:50;6.22;;;2.47;;
18780;SDS011;9519;51.890;8.970;2023-08-20T22:53:52;5.70;;;2.05;;
18780;SDS011;9519;51.890;8.970;2023-08-20T22:58:58;8.70;;;2.20;;
18780;SDS011;9519;51.890;8.970;2023-08-20T23:04:00;5.38;;;2.58;;
18780;SDS011;9519;51.890;8.970;2023-08-20T23:09:03;7.95;;;3.03;;
18780;SDS011;9519;51.890;8.970;2023-08-20T23:14:07;9.45;;;2.50;;
18780;SDS011;9519;51.890;8.970;2023-08-20T23:19:09;7.00;;;2.90;;
18780;SDS011;9519;51.890;8.970;2023-08-20T23:24:12;6.40;;;2.47;;
18780;SDS011;9519;51.890;8.970;2023-08-20T23:29:15;7.93;;;3.10;;
18780;SDS011;9519;51.890;8.970;2023-08-20T23:34:17;5.65;;;3.00;;
18780;SDS011;9519;51.890;8.970;2023-08-20T23:39:19;8.90;;;3.28;;
18780;SDS011;9519;51.890;8.970;2023-08-20T23:44:23;7.28;;;3.05;;
18780;SDS011;9519;51.890;8.970;2023-08-20T23:49:25;7.25;;;2.65;;
18780;SDS011;9519;51.890;8.970;2023-08-20T23:54:27;6.43;;;2.90;;
18780;SDS011;9519;51.890;8.970;2023-08-20T23:59:30;7.72;;;3.05;;
